sensor_id;sensor_type;location;lat;lon;timestamp;temperature;humidity
34646;DHT22;20857;47.808;12.482;2023-04-03T00:00:38;2.50;99.90
34646;DHT22;20857;47.808;12.482;2023-04-03T00:03:03;2.50;99.90
34646;DHT22;20857;47.808;12.482;2023-04-03T00:05:29;2.50;99.90
34646;DHT22;20857;47.808;12.482;2023-04-03T00:07:54;2.50;99.90
34646;DHT22;20857;47.808;12.482;2023-04-03T00:10:20;2.50;99.90
34646;DHT22;20857;47.808;12.482;2023-04-03T00:12:45;2.50;99.90
34646;DHT22;20857;47.808;12.482;2023-04-03T00:15:11;2.60;99.90
34646;DHT22;20857;47.808;12.482;2023-04-03T00:17:37;4.00;99.90
34646;DHT22;20857;47.808;12.482;2023-04-03T00:20:03;2.40;99.90
34646;DHT22;20857;47.808;12.482;2023-04-03T00:22:28;2.50;99.90
34646;DHT22;20857;47.808;12.482;2023-04-03T00:24:54;2.50;99.90
34646;DHT22;20857;47.808;12.482;2023-04-03T00:27:20;3.30;99.90
34646;DHT22;20857;47.808;12.482;2023-04-03T00:29:45;2.80;99.90
34646;DHT22;20857;47.808;12.482;2023-04-03T00:32:11;3.30;99.90
34646;DHT22;20857;47.808;12.482;2023-04-03T00:34:37;2.40;99.90
34646;DHT22;20857;47.808;12.482;2023-04-03T00:37:02;2.50;99.90
34646;DHT22;20857;47.808;12.482;2023-04-03T00:39:28;2.50;99.90
34646;DHT22;20857;47.808;12.482;2023-04-03T00:41:53;2.50;99.90
34646;DHT22;20857;47.808;12.482;2023-04-03T00:46:53;2.60;99.90
34646;DHT22;20857;47.808;12.482;2023-04-03T00:49:19;2.50;99.90
34646;DHT22;20857;47.808;12.482;2023-04-03T00:51:45;2.60;99.90
34646;DHT22;20857;47.808;12.482;2023-04-03T00:54:11;2.60;99.90
34646;DHT22;20857;47.808;12.482;2023-04-03T00:56:37;3.50;99.90
34646;DHT22;20857;47.808;12.482;2023-04-03T00:59:08;2.70;99.90
34646;DHT22;20857;47.808;12.482;2023-04-03T01:01:35;2.60;99.90
34646;DHT22;20857;47.808;12.482;2023-04-03T01:04:01;2.50;99.90
34646;DHT22;20857;47.808;12.482;2023-04-03T01:06:29;2.90;99.90
34646;DHT22;20857;47.808;12.482;2023-04-03T01:08:59;2.60;99.90
34646;DHT22;20857;47.808;12.482;2023-04-03T01:11:24;2.50;99.90
34646;DHT22;20857;47.808;12.482;2023-04-03T01:13:50;3.30;99.90
34646;DHT22;20857;47.808;12.482;2023-04-03T01:16:15;2.60;99.90
34646;DHT22;20857;47.808;12.482;2023-04-03T01:18:41;3.60;99.90
34646;DHT22;20857;47.808;12.482;2023-04-03T01:21:14;2.90;99.90
34646;DHT22;20857;47.808;12.482;2023-04-03T01:23:49;2.40;99.90
34646;DHT22;20857;47.808;12.482;2023-04-03T01:26:16;2.40;99.90
34646;DHT22;20857;47.808;12.482;2023-04-03T01:28:42;2.40;99.90
34646;DHT22;20857;47.808;12.482;2023-04-03T01:31:12;2.40;99.90
34646;DHT22;20857;47.808;12.482;2023-04-03T01:33:38;2.40;99.90
34646;DHT22;20857;47.808;12.482;2023-04-03T01:36:03;2.30;99.90
34646;DHT22;20857;47.808;12.482;2023-04-03T01:38:29;2.40;99.90
34646;DHT22;20857;47.808;12.482;2023-04-03T01:40:55;2.40;99.90
34646;DHT22;20857;47.808;12.482;2023-04-03T01:43:21;2.40;99.90
34646;DHT22;20857;47.808;12.482;2023-04-03T01:47:08;2.40;99.90
34646;DHT22;20857;47.808;12.482;2023-04-03T01:49:33;2.40;99.90
34646;DHT22;20857;47.808;12.482;2023-04-03T01:51:59;2.50;99.90
34646;DHT22;20857;47.808;12.482;2023-04-03T01:54:24;2.50;99.90
34646;DHT22;20857;47.808;12.482;2023-04-03T01:56:50;2.50;99.90
34646;DHT22;20857;47.808;12.482;2023-04-03T01:59:16;2.50;99.90
34646;DHT22;20857;47.808;12.482;2023-04-03T02:01:43;2.50;99.90
34646;DHT22;20857;47.808;12.482;2023-04-03T02:04:10;2.50;99.90
34646;DHT22;20857;47.808;12.482;2023-04-03T02:06:36;2.40;99.90
34646;DHT22;20857;47.808;12.482;2023-04-03T02:09:02;2.30;99.90
34646;DHT22;20857;47.808;12.482;2023-04-03T02:11:27;2.40;99.90
34646;DHT22;20857;47.808;12.482;2023-04-03T02:13:53;2.50;99.90
34646;DHT22;20857;47.808;12.482;2023-04-03T02:16:18;2.40;99.90
34646;DHT22;20857;47.808;12.482;2023-04-03T02:18:44;2.70;99.90
34646;DHT22;20857;47.808;12.482;2023-04-03T02:21:09;2.40;99.90
34646;DHT22;20857;47.808;12.482;2023-04-03T02:23:35;2.40;99.90
34646;DHT22;20857;47.808;12.482;2023-04-03T02:26:07;2.40;99.90
34646;DHT22;20857;47.808;12.482;2023-04-03T02:28:33;2.30;99.90
34646;DHT22;20857;47.808;12.482;2023-04-03T02:30:58;3.00;99.90
34646;DHT22;20857;47.808;12.482;2023-04-03T02:33:24;2.50;99.90
34646;DHT22;20857;47.808;12.482;2023-04-03T02:35:53;2.30;99.90
34646;DHT22;20857;47.808;12.482;2023-04-03T02:38:19;2.30;99.90
34646;DHT22;20857;47.808;12.482;2023-04-03T02:40:44;2.30;99.90
34646;DHT22;20857;47.808;12.482;2023-04-03T02:43:10;2.30;99.90
34646;DHT22;20857;47.808;12.482;2023-04-03T02:45:35;2.20;99.90
34646;DHT22;20857;47.808;12.482;2023-04-03T02:48:01;2.20;99.90
34646;DHT22;20857;47.808;12.482;2023-04-03T02:50:26;2.20;99.90
34646;DHT22;20857;47.808;12.482;2023-04-03T02:52:52;2.20;99.90
34646;DHT22;20857;47.808;12.482;2023-04-03T02:55:17;2.20;99.90
34646;DHT22;20857;47.808;12.482;2023-04-03T02:57:43;2.40;99.90
34646;DHT22;20857;47.808;12.482;2023-04-03T03:00:08;2.20;99.90
34646;DHT22;20857;47.808;12.482;2023-04-03T03:02:35;2.30;99.90
34646;DHT22;20857;47.808;12.482;2023-04-03T03:05:00;2.20;99.90
34646;DHT22;20857;47.808;12.482;2023-04-03T03:07:26;2.30;99.90
34646;DHT22;20857;47.808;12.482;2023-04-03T03:09:51;2.20;99.90
34646;DHT22;20857;47.808;12.482;2023-04-03T03:12:17;2.20;99.90
34646;DHT22;20857;47.808;12.482;2023-04-03T03:14:47;2.20;99.90
34646;DHT22;20857;47.808;12.482;2023-04-03T03:17:13;2.30;99.90
34646;DHT22;20857;47.808;12.482;2023-04-03T03:19:38;2.30;99.90
34646;DHT22;20857;47.808;12.482;2023-04-03T03:22:04;2.20;99.90
34646;DHT22;20857;47.808;12.482;2023-04-03T03:24:29;2.30;99.90
34646;DHT22;20857;47.808;12.482;2023-04-03T03:26:55;2.30;99.90
34646;DHT22;20857;47.808;12.482;2023-04-03T03:29:21;2.30;99.90
34646;DHT22;20857;47.808;12.482;2023-04-03T03:31:46;2.30;99.90
34646;DHT22;20857;47.808;12.482;2023-04-03T03:34:12;2.30;99.90
34646;DHT22;20857;47.808;12.482;2023-04-03T03:36:38;2.40;99.90
34646;DHT22;20857;47.808;12.482;2023-04-03T03:39:03;2.40;99.90
34646;DHT22;20857;47.808;12.482;2023-04-03T03:41:29;2.20;99.90
34646;DHT22;20857;47.808;12.482;2023-04-03T03:43:54;2.10;99.90
34646;DHT22;20857;47.808;12.482;2023-04-03T03:46:20;2.10;99.90
34646;DHT22;20857;47.808;12.482;2023-04-03T03:48:46;2.10;99.90
34646;DHT22;20857;47.808;12.482;2023-04-03T03:51:11;2.20;99.90
34646;DHT22;20857;47.808;12.482;2023-04-03T03:53:36;2.10;99.90
34646;DHT22;20857;47.808;12.482;2023-04-03T03:56:02;2.20;99.90
34646;DHT22;20857;47.808;12.482;2023-04-03T03:58:27;2.20;99.90
34646;DHT22;20857;47.808;12.482;2023-04-03T04:00:53;2.10;99.90
34646;DHT22;20857;47.808;12.482;2023-04-03T04:03:18;2.10;99.90
34646;DHT22;20857;47.808;12.482;2023-04-03T04:05:44;2.20;99.90
34646;DHT22;20857;47.808;12.482;2023-04-03T04:08:10;2.20;99.90
34646;DHT22;20857;47.808;12.482;2023-04-03T04:10:35;2.20;99.90
34646;DHT22;20857;47.808;12.482;2023-04-03T04:13:02;2.40;99.90
34646;DHT22;20857;47.808;12.482;2023-04-03T04:15:28;2.30;99.90
34646;DHT22;20857;47.808;12.482;2023-04-03T04:17:53;2.20;99.90
34646;DHT22;20857;47.808;12.482;2023-04-03T04:20:19;2.20;99.90
34646;DHT22;20857;47.808;12.482;2023-04-03T04:22:44;2.10;99.90
34646;DHT22;20857;47.808;12.482;2023-04-03T04:25:10;2.20;99.90
34646;DHT22;20857;47.808;12.482;2023-04-03T04:27:35;2.10;99.90
34646;DHT22;20857;47.808;12.482;2023-04-03T04:30:02;3.90;99.90
34646;DHT22;20857;47.808;12.482;2023-04-03T04:32:28;2.10;99.90
34646;DHT22;20857;47.808;12.482;2023-04-03T04:34:54;2.20;99.90
34646;DHT22;20857;47.808;12.482;2023-04-03T04:37:20;2.20;99.90
34646;DHT22;20857;47.808;12.482;2023-04-03T04:39:45;3.40;99.90
34646;DHT22;20857;47.808;12.482;2023-04-03T04:42:10;2.20;99.90
34646;DHT22;20857;47.808;12.482;2023-04-03T04:44:41;2.20;99.90
34646;DHT22;20857;47.808;12.482;2023-04-03T04:47:07;2.10;99.90
34646;DHT22;20857;47.808;12.482;2023-04-03T04:49:32;2.20;99.90
34646;DHT22;20857;47.808;12.482;2023-04-03T04:51:58;2.10;99.90
34646;DHT22;20857;47.808;12.482;2023-04-03T04:54:23;2.10;99.90
34646;DHT22;20857;47.808;12.482;2023-04-03T04:56:48;2.10;99.90
34646;DHT22;20857;47.808;12.482;2023-04-03T04:59:14;2.10;99.90
34646;DHT22;20857;47.808;12.482;2023-04-03T05:01:39;2.20;99.90
34646;DHT22;20857;47.808;12.482;2023-04-03T05:04:05;2.10;99.90
34646;DHT22;20857;47.808;12.482;2023-04-03T05:06:31;2.10;99.90
34646;DHT22;20857;47.808;12.482;2023-04-03T05:08:57;2.20;99.90
34646;DHT22;20857;47.808;12.482;2023-04-03T05:11:22;2.20;99.90
34646;DHT22;20857;47.808;12.482;2023-04-03T05:13:48;2.20;99.90
34646;DHT22;20857;47.808;12.482;2023-04-03T05:16:13;2.10;99.90
34646;DHT22;20857;47.808;12.482;2023-04-03T05:18:39;2.10;99.90
34646;DHT22;20857;47.808;12.482;2023-04-03T05:21:05;2.30;99.90
34646;DHT22;20857;47.808;12.482;2023-04-03T05:23:30;2.10;99.90
34646;DHT22;20857;47.808;12.482;2023-04-03T05:25:56;2.20;99.90
34646;DHT22;20857;47.808;12.482;2023-04-03T05:28:21;2.20;99.90
34646;DHT22;20857;47.808;12.482;2023-04-03T05:30:52;2.10;99.90
34646;DHT22;20857;47.808;12.482;2023-04-03T05:33:18;2.10;99.90
34646;DHT22;20857;47.808;12.482;2023-04-03T05:35:43;2.10;99.90
34646;DHT22;20857;47.808;12.482;2023-04-03T05:38:09;2.10;99.90
34646;DHT22;20857;47.808;12.482;2023-04-03T05:40:34;2.20;99.90
34646;DHT22;20857;47.808;12.482;2023-04-03T05:43:00;2.90;99.90
34646;DHT22;20857;47.808;12.482;2023-04-03T05:45:25;2.20;99.90
34646;DHT22;20857;47.808;12.482;2023-04-03T05:47:51;2.20;99.90
34646;DHT22;20857;47.808;12.482;2023-04-03T05:50:16;2.20;99.90
34646;DHT22;20857;47.808;12.482;2023-04-03T05:52:43;2.20;99.90
34646;DHT22;20857;47.808;12.482;2023-04-03T05:55:09;2.20;99.90
34646;DHT22;20857;47.808;12.482;2023-04-03T05:57:35;2.20;99.90
34646;DHT22;20857;47.808;12.482;2023-04-03T06:00:00;2.30;99.90
34646;DHT22;20857;47.808;12.482;2023-04-03T06:02:26;2.30;99.90
34646;DHT22;20857;47.808;12.482;2023-04-03T06:04:52;2.30;99.90
34646;DHT22;20857;47.808;12.482;2023-04-03T06:07:18;2.30;99.90
34646;DHT22;20857;47.808;12.482;2023-04-03T06:09:46;3.10;99.90
34646;DHT22;20857;47.808;12.482;2023-04-03T06:12:12;2.40;99.90
34646;DHT22;20857;47.808;12.482;2023-04-03T06:14:37;2.40;99.90
34646;DHT22;20857;47.808;12.482;2023-04-03T06:17:03;2.40;99.90
34646;DHT22;20857;47.808;12.482;2023-04-03T06:19:29;2.40;99.90
34646;DHT22;20857;47.808;12.482;2023-04-03T06:21:54;2.40;99.90
34646;DHT22;20857;47.808;12.482;2023-04-03T06:24:20;2.40;99.90
34646;DHT22;20857;47.808;12.482;2023-04-03T06:26:48;2.50;99.90
34646;DHT22;20857;47.808;12.482;2023-04-03T06:29:14;2.50;99.90
34646;DHT22;20857;47.808;12.482;2023-04-03T06:31:39;2.50;99.90
34646;DHT22;20857;47.808;12.482;2023-04-03T06:34:05;2.40;99.90
34646;DHT22;20857;47.808;12.482;2023-04-03T06:36:32;2.40;99.90
34646;DHT22;20857;47.808;12.482;2023-04-03T06:38:58;2.50;99.90
34646;DHT22;20857;47.808;12.482;2023-04-03T06:41:23;2.60;99.90
34646;DHT22;20857;47.808;12.482;2023-04-03T06:43:49;2.70;99.90
34646;DHT22;20857;47.808;12.482;2023-04-03T06:46:18;2.70;99.90
34646;DHT22;20857;47.808;12.482;2023-04-03T06:48:44;2.90;99.90
34646;DHT22;20857;47.808;12.482;2023-04-03T06:51:28;3.10;99.90
34646;DHT22;20857;47.808;12.482;2023-04-03T06:53:55;3.20;99.90
34646;DHT22;20857;47.808;12.482;2023-04-03T06:56:22;3.30;99.90
34646;DHT22;20857;47.808;12.482;2023-04-03T06:58:47;3.30;99.90
34646;DHT22;20857;47.808;12.482;2023-04-03T07:01:14;3.30;99.90
34646;DHT22;20857;47.808;12.482;2023-04-03T07:03:40;3.30;99.90
34646;DHT22;20857;47.808;12.482;2023-04-03T07:06:06;3.30;99.90
34646;DHT22;20857;47.808;12.482;2023-04-03T07:08:32;3.40;99.90
34646;DHT22;20857;47.808;12.482;2023-04-03T07:10:58;3.30;99.90
34646;DHT22;20857;47.808;12.482;2023-04-03T07:13:24;3.30;99.90
34646;DHT22;20857;47.808;12.482;2023-04-03T07:15:49;3.30;99.90
34646;DHT22;20857;47.808;12.482;2023-04-03T07:18:15;3.30;99.90
34646;DHT22;20857;47.808;12.482;2023-04-03T07:20:42;3.20;99.90
34646;DHT22;20857;47.808;12.482;2023-04-03T07:23:07;4.60;99.90
34646;DHT22;20857;47.808;12.482;2023-04-03T07:25:33;3.30;99.90
34646;DHT22;20857;47.808;12.482;2023-04-03T07:27:58;3.30;99.90
34646;DHT22;20857;47.808;12.482;2023-04-03T07:30:24;3.50;99.90
34646;DHT22;20857;47.808;12.482;2023-04-03T07:32:50;3.50;99.90
34646;DHT22;20857;47.808;12.482;2023-04-03T07:35:16;3.50;99.90
34646;DHT22;20857;47.808;12.482;2023-04-03T07:37:42;3.60;99.90
34646;DHT22;20857;47.808;12.482;2023-04-03T07:40:08;3.60;99.90
34646;DHT22;20857;47.808;12.482;2023-04-03T07:42:34;3.60;99.90
34646;DHT22;20857;47.808;12.482;2023-04-03T07:45:00;3.60;99.90
34646;DHT22;20857;47.808;12.482;2023-04-03T07:47:26;3.50;99.90
34646;DHT22;20857;47.808;12.482;2023-04-03T07:49:51;3.60;99.90
34646;DHT22;20857;47.808;12.482;2023-04-03T07:52:17;3.70;99.90
34646;DHT22;20857;47.808;12.482;2023-04-03T07:54:42;3.70;99.90
34646;DHT22;20857;47.808;12.482;2023-04-03T07:57:08;3.80;99.90
34646;DHT22;20857;47.808;12.482;2023-04-03T07:59:33;3.90;99.90
34646;DHT22;20857;47.808;12.482;2023-04-03T08:01:59;4.00;99.90
34646;DHT22;20857;47.808;12.482;2023-04-03T08:04:24;4.10;99.90
34646;DHT22;20857;47.808;12.482;2023-04-03T08:06:51;4.20;99.90
34646;DHT22;20857;47.808;12.482;2023-04-03T08:09:17;4.20;99.90
34646;DHT22;20857;47.808;12.482;2023-04-03T08:11:42;4.40;99.90
34646;DHT22;20857;47.808;12.482;2023-04-03T08:14:08;4.30;99.90
34646;DHT22;20857;47.808;12.482;2023-04-03T08:16:36;4.30;99.90
34646;DHT22;20857;47.808;12.482;2023-04-03T08:19:01;4.20;99.90
34646;DHT22;20857;47.808;12.482;2023-04-03T08:21:27;4.30;99.90
34646;DHT22;20857;47.808;12.482;2023-04-03T08:23:52;4.30;99.90
34646;DHT22;20857;47.808;12.482;2023-04-03T08:26:19;4.30;99.90
34646;DHT22;20857;47.808;12.482;2023-04-03T08:28:46;4.50;99.90
34646;DHT22;20857;47.808;12.482;2023-04-03T08:31:14;4.70;99.90
34646;DHT22;20857;47.808;12.482;2023-04-03T08:33:40;4.70;99.90
34646;DHT22;20857;47.808;12.482;2023-04-03T08:36:07;4.70;99.90
34646;DHT22;20857;47.808;12.482;2023-04-03T08:38:33;4.70;99.90
34646;DHT22;20857;47.808;12.482;2023-04-03T08:40:59;4.90;99.90
34646;DHT22;20857;47.808;12.482;2023-04-03T08:45:55;4.70;99.90
34646;DHT22;20857;47.808;12.482;2023-04-03T08:48:24;4.70;99.90
34646;DHT22;20857;47.808;12.482;2023-04-03T08:50:53;4.60;99.90
34646;DHT22;20857;47.808;12.482;2023-04-03T08:53:25;4.70;99.90
34646;DHT22;20857;47.808;12.482;2023-04-03T08:55:53;4.80;99.90
34646;DHT22;20857;47.808;12.482;2023-04-03T08:58:21;5.00;99.90
34646;DHT22;20857;47.808;12.482;2023-04-03T09:01:04;5.10;99.90
34646;DHT22;20857;47.808;12.482;2023-04-03T09:03:30;5.10;99.90
34646;DHT22;20857;47.808;12.482;2023-04-03T09:11:24;5.30;99.90
34646;DHT22;20857;47.808;12.482;2023-04-03T09:21:38;5.80;99.90
34646;DHT22;20857;47.808;12.482;2023-04-03T09:24:07;5.80;99.90
34646;DHT22;20857;47.808;12.482;2023-04-03T09:26:48;5.90;99.90
34646;DHT22;20857;47.808;12.482;2023-04-03T09:29:20;5.90;99.90
34646;DHT22;20857;47.808;12.482;2023-04-03T09:31:47;6.50;99.90
34646;DHT22;20857;47.808;12.482;2023-04-03T09:34:23;6.80;99.90
34646;DHT22;20857;47.808;12.482;2023-04-03T09:36:53;6.50;99.90
34646;DHT22;20857;47.808;12.482;2023-04-03T09:39:19;6.30;99.90
34646;DHT22;20857;47.808;12.482;2023-04-03T09:42:05;6.20;99.90
34646;DHT22;20857;47.808;12.482;2023-04-03T09:46:56;6.50;99.90
34646;DHT22;20857;47.808;12.482;2023-04-03T09:49:22;6.30;99.90
34646;DHT22;20857;47.808;12.482;2023-04-03T09:51:47;6.70;99.90
34646;DHT22;20857;47.808;12.482;2023-04-03T09:56:55;7.20;99.90
34646;DHT22;20857;47.808;12.482;2023-04-03T09:59:21;7.40;99.90
34646;DHT22;20857;47.808;12.482;2023-04-03T10:01:57;7.50;99.90
34646;DHT22;20857;47.808;12.482;2023-04-03T10:04:23;7.20;99.90
34646;DHT22;20857;47.808;12.482;2023-04-03T10:06:53;6.90;99.90
34646;DHT22;20857;47.808;12.482;2023-04-03T10:09:24;6.70;99.90
34646;DHT22;20857;47.808;12.482;2023-04-03T10:12:03;6.80;99.90
34646;DHT22;20857;47.808;12.482;2023-04-03T10:14:31;6.90;99.90
34646;DHT22;20857;47.808;12.482;2023-04-03T10:16:59;7.10;99.90
34646;DHT22;20857;47.808;12.482;2023-04-03T10:19:41;6.70;99.90
34646;DHT22;20857;47.808;12.482;2023-04-03T10:33:02;5.90;99.90
34646;DHT22;20857;47.808;12.482;2023-04-03T10:43:10;5.30;99.90
34646;DHT22;20857;47.808;12.482;2023-04-03T10:59:01;6.10;99.90
34646;DHT22;20857;47.808;12.482;2023-04-03T11:01:33;6.20;99.90
34646;DHT22;20857;47.808;12.482;2023-04-03T11:04:07;6.10;99.90
34646;DHT22;20857;47.808;12.482;2023-04-03T11:11:48;6.20;99.90
34646;DHT22;20857;47.808;12.482;2023-04-03T11:22:13;6.20;99.90
34646;DHT22;20857;47.808;12.482;2023-04-03T11:24:42;6.20;99.90
34646;DHT22;20857;47.808;12.482;2023-04-03T11:27:11;6.10;99.90
34646;DHT22;20857;47.808;12.482;2023-04-03T11:29:41;5.90;99.90
34646;DHT22;20857;47.808;12.482;2023-04-03T11:34:37;4.70;99.90
34646;DHT22;20857;47.808;12.482;2023-04-03T11:37:11;4.40;99.90
34646;DHT22;20857;47.808;12.482;2023-04-03T11:39:37;4.00;99.90
34646;DHT22;20857;47.808;12.482;2023-04-03T11:42:13;3.80;99.90
34646;DHT22;20857;47.808;12.482;2023-04-03T11:44:40;3.70;99.90
34646;DHT22;20857;47.808;12.482;2023-04-03T11:47:07;3.50;99.90
34646;DHT22;20857;47.808;12.482;2023-04-03T11:55:02;2.80;99.90
34646;DHT22;20857;47.808;12.482;2023-04-03T11:57:47;3.00;99.90
34646;DHT22;20857;47.808;12.482;2023-04-03T12:02:56;3.40;99.90
34646;DHT22;20857;47.808;12.482;2023-04-03T12:05:26;3.40;99.90
34646;DHT22;20857;47.808;12.482;2023-04-03T12:10:38;3.50;99.90
34646;DHT22;20857;47.808;12.482;2023-04-03T12:13:12;3.50;99.90
34646;DHT22;20857;47.808;12.482;2023-04-03T12:18:31;3.50;99.90
34646;DHT22;20857;47.808;12.482;2023-04-03T12:20:57;3.60;99.90
34646;DHT22;20857;47.808;12.482;2023-04-03T12:23:33;3.90;99.90
34646;DHT22;20857;47.808;12.482;2023-04-03T12:25:59;4.00;99.90
34646;DHT22;20857;47.808;12.482;2023-04-03T12:28:25;4.20;99.90
34646;DHT22;20857;47.808;12.482;2023-04-03T12:30:51;4.30;99.90
34646;DHT22;20857;47.808;12.482;2023-04-03T12:33:30;4.50;99.90
34646;DHT22;20857;47.808;12.482;2023-04-03T12:38:37;4.90;99.90
34646;DHT22;20857;47.808;12.482;2023-04-03T12:46:11;5.80;99.90
34646;DHT22;20857;47.808;12.482;2023-04-03T12:48:54;5.90;99.90
34646;DHT22;20857;47.808;12.482;2023-04-03T12:51:27;5.80;99.90
34646;DHT22;20857;47.808;12.482;2023-04-03T12:53:58;5.30;99.90
34646;DHT22;20857;47.808;12.482;2023-04-03T12:56:26;5.10;99.90
34646;DHT22;20857;47.808;12.482;2023-04-03T12:58:53;4.90;99.90
34646;DHT22;20857;47.808;12.482;2023-04-03T13:01:25;4.50;99.90
34646;DHT22;20857;47.808;12.482;2023-04-03T13:03:57;4.20;99.90
34646;DHT22;20857;47.808;12.482;2023-04-03T13:06:24;3.90;99.90
34646;DHT22;20857;47.808;12.482;2023-04-03T13:08:52;3.80;99.90
34646;DHT22;20857;47.808;12.482;2023-04-03T13:11:18;3.60;99.90
34646;DHT22;20857;47.808;12.482;2023-04-03T13:13:53;3.50;99.90
34646;DHT22;20857;47.808;12.482;2023-04-03T13:16:19;3.30;99.90
34646;DHT22;20857;47.808;12.482;2023-04-03T13:18:44;3.40;99.90
34646;DHT22;20857;47.808;12.482;2023-04-03T13:21:17;3.60;99.90
34646;DHT22;20857;47.808;12.482;2023-04-03T13:23:45;3.90;99.90
34646;DHT22;20857;47.808;12.482;2023-04-03T13:26:11;4.10;99.90
34646;DHT22;20857;47.808;12.482;2023-04-03T13:28:36;4.10;99.90
34646;DHT22;20857;47.808;12.482;2023-04-03T13:33:53;4.20;99.90
34646;DHT22;20857;47.808;12.482;2023-04-03T13:36:20;4.20;99.90
34646;DHT22;20857;47.808;12.482;2023-04-03T13:38:57;4.20;99.90
34646;DHT22;20857;47.808;12.482;2023-04-03T13:41:24;4.00;99.90
34646;DHT22;20857;47.808;12.482;2023-04-03T13:43:50;3.90;99.90
34646;DHT22;20857;47.808;12.482;2023-04-03T13:48:43;3.70;99.90
34646;DHT22;20857;47.808;12.482;2023-04-03T13:53:51;3.90;99.90
34646;DHT22;20857;47.808;12.482;2023-04-03T13:56:19;4.10;99.90
34646;DHT22;20857;47.808;12.482;2023-04-03T13:58:57;4.30;99.90
34646;DHT22;20857;47.808;12.482;2023-04-03T14:01:23;4.40;99.90
34646;DHT22;20857;47.808;12.482;2023-04-03T14:03:54;4.60;99.90
34646;DHT22;20857;47.808;12.482;2023-04-03T14:06:20;4.70;99.90
34646;DHT22;20857;47.808;12.482;2023-04-03T14:08:46;4.90;99.90
34646;DHT22;20857;47.808;12.482;2023-04-03T14:11:16;4.90;99.90
34646;DHT22;20857;47.808;12.482;2023-04-03T14:13:43;5.20;99.90
34646;DHT22;20857;47.808;12.482;2023-04-03T14:16:12;5.30;99.90
34646;DHT22;20857;47.808;12.482;2023-04-03T14:18:38;5.50;99.90
34646;DHT22;20857;47.808;12.482;2023-04-03T14:21:03;5.70;99.90
34646;DHT22;20857;47.808;12.482;2023-04-03T14:23:29;5.70;99.90
34646;DHT22;20857;47.808;12.482;2023-04-03T14:25:58;5.90;99.90
34646;DHT22;20857;47.808;12.482;2023-04-03T14:28:25;6.20;99.90
34646;DHT22;20857;47.808;12.482;2023-04-03T14:30:51;6.40;99.90
34646;DHT22;20857;47.808;12.482;2023-04-03T14:33:18;6.60;99.90
34646;DHT22;20857;47.808;12.482;2023-04-03T14:35:44;6.70;99.90
34646;DHT22;20857;47.808;12.482;2023-04-03T14:38:31;6.70;99.90
34646;DHT22;20857;47.808;12.482;2023-04-03T14:40:56;6.80;99.90
34646;DHT22;20857;47.808;12.482;2023-04-03T14:43:21;7.00;99.90
34646;DHT22;20857;47.808;12.482;2023-04-03T14:45:47;7.00;99.90
34646;DHT22;20857;47.808;12.482;2023-04-03T14:48:20;7.00;99.90
34646;DHT22;20857;47.808;12.482;2023-04-03T14:50:46;7.10;99.90
34646;DHT22;20857;47.808;12.482;2023-04-03T14:53:13;7.20;99.90
34646;DHT22;20857;47.808;12.482;2023-04-03T14:55:40;6.90;99.90
34646;DHT22;20857;47.808;12.482;2023-04-03T14:58:09;6.60;99.90
34646;DHT22;20857;47.808;12.482;2023-04-03T15:00:37;6.40;99.90
34646;DHT22;20857;47.808;12.482;2023-04-03T15:03:02;6.10;99.90
34646;DHT22;20857;47.808;12.482;2023-04-03T15:05:28;5.90;99.90
34646;DHT22;20857;47.808;12.482;2023-04-03T15:07:54;5.40;99.90
34646;DHT22;20857;47.808;12.482;2023-04-03T15:10:21;5.10;99.90
34646;DHT22;20857;47.808;12.482;2023-04-03T15:12:47;5.00;99.90
34646;DHT22;20857;47.808;12.482;2023-04-03T15:15:13;4.50;99.90
34646;DHT22;20857;47.808;12.482;2023-04-03T15:17:39;4.40;99.90
34646;DHT22;20857;47.808;12.482;2023-04-03T15:20:10;4.20;99.90
34646;DHT22;20857;47.808;12.482;2023-04-03T15:22:37;4.10;99.90
34646;DHT22;20857;47.808;12.482;2023-04-03T15:25:02;4.10;99.90
34646;DHT22;20857;47.808;12.482;2023-04-03T15:27:28;4.00;99.90
34646;DHT22;20857;47.808;12.482;2023-04-03T15:29:53;4.20;99.90
34646;DHT22;20857;47.808;12.482;2023-04-03T15:32:19;3.60;99.90
34646;DHT22;20857;47.808;12.482;2023-04-03T15:34:45;3.70;99.90
34646;DHT22;20857;47.808;12.482;2023-04-03T15:37:10;3.70;99.90
34646;DHT22;20857;47.808;12.482;2023-04-03T15:39:35;3.60;99.90
34646;DHT22;20857;47.808;12.482;2023-04-03T15:42:01;3.70;99.90
34646;DHT22;20857;47.808;12.482;2023-04-03T15:44:32;3.80;99.90
34646;DHT22;20857;47.808;12.482;2023-04-03T15:46:58;3.90;99.90
34646;DHT22;20857;47.808;12.482;2023-04-03T15:49:23;3.90;99.90
34646;DHT22;20857;47.808;12.482;2023-04-03T15:51:49;4.00;99.90
34646;DHT22;20857;47.808;12.482;2023-04-03T15:54:15;4.10;99.90
34646;DHT22;20857;47.808;12.482;2023-04-03T15:56:41;4.20;99.90
34646;DHT22;20857;47.808;12.482;2023-04-03T15:59:06;4.30;99.90
34646;DHT22;20857;47.808;12.482;2023-04-03T16:01:32;4.20;99.90
34646;DHT22;20857;47.808;12.482;2023-04-03T16:03:57;4.10;99.90
34646;DHT22;20857;47.808;12.482;2023-04-03T16:06:23;4.10;99.90
34646;DHT22;20857;47.808;12.482;2023-04-03T16:08:49;4.00;99.90
34646;DHT22;20857;47.808;12.482;2023-04-03T16:11:14;3.90;99.90
34646;DHT22;20857;47.808;12.482;2023-04-03T16:13:40;3.90;99.90
34646;DHT22;20857;47.808;12.482;2023-04-03T16:16:06;3.90;99.90
34646;DHT22;20857;47.808;12.482;2023-04-03T16:18:31;3.90;99.90
34646;DHT22;20857;47.808;12.482;2023-04-03T16:20:59;4.00;99.90
34646;DHT22;20857;47.808;12.482;2023-04-03T16:23:24;4.10;99.90
34646;DHT22;20857;47.808;12.482;2023-04-03T16:25:50;4.10;99.90
34646;DHT22;20857;47.808;12.482;2023-04-03T16:28:16;4.10;99.90
34646;DHT22;20857;47.808;12.482;2023-04-03T16:30:42;4.00;99.90
34646;DHT22;20857;47.808;12.482;2023-04-03T16:33:09;4.10;99.90
34646;DHT22;20857;47.808;12.482;2023-04-03T16:35:35;4.10;99.90
34646;DHT22;20857;47.808;12.482;2023-04-03T16:38:00;4.00;99.90
34646;DHT22;20857;47.808;12.482;2023-04-03T16:40:26;4.00;99.90
34646;DHT22;20857;47.808;12.482;2023-04-03T16:42:51;4.10;99.90
34646;DHT22;20857;47.808;12.482;2023-04-03T16:45:17;4.00;99.90
34646;DHT22;20857;47.808;12.482;2023-04-03T16:47:42;4.00;99.90
34646;DHT22;20857;47.808;12.482;2023-04-03T16:50:08;4.00;99.90
34646;DHT22;20857;47.808;12.482;2023-04-03T16:52:34;3.90;99.90
34646;DHT22;20857;47.808;12.482;2023-04-03T16:54:59;3.80;99.90
34646;DHT22;20857;47.808;12.482;2023-04-03T16:57:25;3.80;99.90
34646;DHT22;20857;47.808;12.482;2023-04-03T16:59:51;3.70;99.90
34646;DHT22;20857;47.808;12.482;2023-04-03T17:02:16;3.70;99.90
34646;DHT22;20857;47.808;12.482;2023-04-03T17:04:42;3.70;99.90
34646;DHT22;20857;47.808;12.482;2023-04-03T17:07:07;4.20;99.90
34646;DHT22;20857;47.808;12.482;2023-04-03T17:09:33;3.70;99.90